createdAt,value
2019-05-29T00:01:45.658Z,97.30
2019-05-29T00:04:16.457Z,97.40
2019-05-29T00:06:47.263Z,97.40
2019-05-29T00:09:20.585Z,97.30
2019-05-29T00:11:51.470Z,97.40
2019-05-29T00:14:27.234Z,97.40
2019-05-29T00:16:54.455Z,97.40
2019-05-29T00:19:25.286Z,97.40
2019-05-29T00:21:56.271Z,97.40
2019-05-29T00:24:27.084Z,97.30
2019-05-29T00:26:57.784Z,97.40
2019-05-29T00:29:28.492Z,97.40
2019-05-29T00:31:59.265Z,97.40
2019-05-29T00:34:30.094Z,97.30
2019-05-29T00:37:00.876Z,97.30
2019-05-29T00:39:31.647Z,97.30
2019-05-29T00:42:02.451Z,97.30
2019-05-29T00:44:34.659Z,97.30
2019-05-29T00:47:05.293Z,97.10
2019-05-29T00:49:36.051Z,97.20
2019-05-29T00:52:08.003Z,97.20
2019-05-29T00:54:39.182Z,97.20
2019-05-29T00:57:10.872Z,97.30
2019-05-29T00:59:41.943Z,97.10
2019-05-29T01:02:13.760Z,97.00
2019-05-29T01:04:44.637Z,97.10
2019-05-29T01:07:16.280Z,97.00
2019-05-29T01:09:47.158Z,96.90
2019-05-29T01:12:19.062Z,96.70
2019-05-29T01:14:50.737Z,96.60
2019-05-29T01:17:21.842Z,96.70
2019-05-29T01:19:53.452Z,96.70
2019-05-29T01:22:24.243Z,96.50
2019-05-29T01:24:55.258Z,96.70
2019-05-29T01:27:27.136Z,96.80
2019-05-29T01:29:58.057Z,96.40
2019-05-29T01:32:28.993Z,96.50
2019-05-29T01:34:59.782Z,96.70
2019-05-29T01:37:30.647Z,96.70
2019-05-29T01:40:16.420Z,96.60
2019-05-29T01:42:33.605Z,96.50
2019-05-29T01:45:08.124Z,96.10
2019-05-29T01:47:36.726Z,95.90
2019-05-29T01:50:08.742Z,95.80
2019-05-29T01:52:39.663Z,95.80
2019-05-29T01:55:10.431Z,95.80
2019-05-29T01:57:41.413Z,96.00
2019-05-29T02:00:12.041Z,95.50
2019-05-29T02:02:44.041Z,95.70
2019-05-29T02:05:15.733Z,95.50
2019-05-29T02:07:46.928Z,95.40
2019-05-29T02:10:18.218Z,95.10
2019-05-29T02:12:49.621Z,94.40
2019-05-29T02:15:31.289Z,94.40
2019-05-29T02:17:52.661Z,94.30
2019-05-29T02:20:23.639Z,94.80
2019-05-29T02:22:54.430Z,94.10
2019-05-29T02:25:26.286Z,94.00
2019-05-29T02:27:57.264Z,94.00
2019-05-29T02:30:30.492Z,94.00
2019-05-29T02:33:00.301Z,93.60
2019-05-29T02:35:30.956Z,93.80
2019-05-29T02:38:01.751Z,93.10
2019-05-29T02:40:32.800Z,93.10
2019-05-29T02:43:03.618Z,93.20
2019-05-29T02:45:53.206Z,92.70
2019-05-29T02:48:06.448Z,93.20
2019-05-29T02:50:37.258Z,93.30
2019-05-29T02:53:08.007Z,92.90
2019-05-29T02:55:38.880Z,92.50
2019-05-29T02:58:09.687Z,91.70
2019-05-29T03:00:43.218Z,91.40
2019-05-29T03:03:14.096Z,91.10
2019-05-29T03:05:44.740Z,91.40
2019-05-29T03:08:15.547Z,91.00
2019-05-29T03:10:46.326Z,91.50
2019-05-29T03:13:17.976Z,91.10
2019-05-29T03:16:07.989Z,90.50
2019-05-29T03:18:21.695Z,90.90
2019-05-29T03:20:52.521Z,90.70
2019-05-29T03:23:24.248Z,89.30
2019-05-29T03:25:55.232Z,90.00
2019-05-29T03:28:27.446Z,89.50
2019-05-29T03:30:58.423Z,89.60
2019-05-29T03:33:38.056Z,89.20
2019-05-29T03:36:01.496Z,90.30
2019-05-29T03:38:32.695Z,90.00
2019-05-29T03:41:04.044Z,88.30
2019-05-29T03:43:35.864Z,86.90
2019-05-29T03:46:07.098Z,87.10
2019-05-29T03:48:38.498Z,84.20
2019-05-29T03:51:09.568Z,84.70
2019-05-29T03:53:40.402Z,86.80
2019-05-29T03:56:11.087Z,83.40
2019-05-29T03:58:41.858Z,84.60
2019-05-29T04:01:12.583Z,84.40
2019-05-29T04:03:43.359Z,80.90
2019-05-29T04:06:14.040Z,82.30
2019-05-29T04:08:44.856Z,81.90
2019-05-29T04:11:15.633Z,81.30
2019-05-29T04:13:46.462Z,80.10
2019-05-29T04:16:17.230Z,80.80
2019-05-29T04:18:48.070Z,80.30
2019-05-29T04:21:18.990Z,78.20
2019-05-29T04:23:51.753Z,75.20
2019-05-29T04:26:22.559Z,77.70
2019-05-29T04:28:53.426Z,76.70
2019-05-29T04:31:24.099Z,77.60
2019-05-29T04:33:54.979Z,75.70
2019-05-29T04:36:25.652Z,76.80
2019-05-29T04:38:56.512Z,75.30
2019-05-29T04:41:28.807Z,76.60
2019-05-29T04:43:59.376Z,77.60
2019-05-29T04:46:31.679Z,76.40
2019-05-29T04:49:02.360Z,78.10
2019-05-29T04:51:33.194Z,76.30
2019-05-29T04:54:03.927Z,74.10
2019-05-29T04:56:34.928Z,73.10
2019-05-29T04:59:05.707Z,72.10
2019-05-29T05:01:37.145Z,73.90
2019-05-29T05:04:08.048Z,72.40
2019-05-29T05:06:39.500Z,71.80
2019-05-29T05:09:10.568Z,71.90
2019-05-29T05:11:41.512Z,72.20
2019-05-29T05:14:12.386Z,73.60
2019-05-29T05:16:43.180Z,73.90
2019-05-29T05:19:16.774Z,68.90
2019-05-29T05:21:46.160Z,70.60
2019-05-29T05:24:16.911Z,71.20
2019-05-29T05:26:47.898Z,69.60
2019-05-29T05:29:18.641Z,73.00
2019-05-29T05:31:49.387Z,71.90
2019-05-29T05:34:20.403Z,71.00
2019-05-29T05:36:51.079Z,71.00
2019-05-29T05:39:21.974Z,71.20
2019-05-29T05:41:53.031Z,71.50
2019-05-29T05:44:23.877Z,72.60
2019-05-29T05:46:54.637Z,72.30
2019-05-29T05:49:25.588Z,68.30
2019-05-29T05:51:56.304Z,72.10
2019-05-29T05:54:27.178Z,70.80
2019-05-29T05:56:57.934Z,66.60
2019-05-29T05:59:28.571Z,68.00
2019-05-29T06:01:59.809Z,64.70
2019-05-29T06:04:31.725Z,66.20
2019-05-29T06:07:02.691Z,66.00
2019-05-29T06:09:34.154Z,66.90
2019-05-29T06:12:04.897Z,68.30
2019-05-29T06:14:36.472Z,67.00
2019-05-29T06:17:07.540Z,68.80
2019-05-29T06:19:38.996Z,66.60
2019-05-29T06:22:09.798Z,65.70
2019-05-29T06:24:41.003Z,66.60
2019-05-29T06:27:12.371Z,65.30
2019-05-29T06:29:43.567Z,64.40
2019-05-29T06:32:14.540Z,65.40
2019-05-29T06:34:45.214Z,68.40
2019-05-29T06:37:15.880Z,66.20
2019-05-29T06:39:46.659Z,65.10
2019-05-29T06:42:17.417Z,66.00
2019-05-29T06:44:49.857Z,67.60
2019-05-29T06:47:20.662Z,68.00
2019-05-29T06:49:51.685Z,67.30
2019-05-29T06:52:22.567Z,68.90
2019-05-29T06:54:53.311Z,68.30
2019-05-29T06:57:25.965Z,68.20
2019-05-29T06:59:56.319Z,67.90
2019-05-29T07:02:27.197Z,67.60
2019-05-29T07:04:58.094Z,68.40
2019-05-29T07:07:28.931Z,67.40
2019-05-29T07:10:00.073Z,68.30
2019-05-29T07:12:30.965Z,67.10
2019-05-29T07:15:01.885Z,64.50
2019-05-29T07:17:32.680Z,62.60
2019-05-29T07:20:04.235Z,64.20
2019-05-29T07:22:36.793Z,63.20
2019-05-29T07:25:08.332Z,63.00
2019-05-29T07:27:39.103Z,64.70
2019-05-29T07:30:09.990Z,63.40
2019-05-29T07:32:42.375Z,65.00
2019-05-29T07:35:13.347Z,65.70
2019-05-29T07:37:44.143Z,65.40
2019-05-29T07:40:14.901Z,65.90
2019-05-29T07:42:51.024Z,65.20
2019-05-29T07:45:17.922Z,66.30
2019-05-29T07:47:48.669Z,66.20
2019-05-29T07:50:19.643Z,65.90
2019-05-29T07:52:50.689Z,67.10
2019-05-29T07:55:23.631Z,67.80
2019-05-29T07:57:54.114Z,66.60
2019-05-29T08:00:35.169Z,67.60
2019-05-29T08:02:56.980Z,67.10
2019-05-29T08:05:28.938Z,67.40
2019-05-29T08:08:01.598Z,67.10
2019-05-29T08:10:32.054Z,68.40
2019-05-29T08:13:02.837Z,68.40
2019-05-29T08:15:33.510Z,66.80
2019-05-29T08:18:04.423Z,65.90
2019-05-29T08:20:35.317Z,66.70
2019-05-29T08:23:06.273Z,66.30
2019-05-29T08:25:37.346Z,66.90
2019-05-29T08:28:08.242Z,67.70
2019-05-29T08:30:39.124Z,68.90
2019-05-29T08:33:09.851Z,65.20
2019-05-29T08:35:41.529Z,63.00
2019-05-29T08:38:12.676Z,65.60
2019-05-29T08:40:43.521Z,66.10
2019-05-29T08:43:14.450Z,66.60
2019-05-29T08:45:48.014Z,66.60
2019-05-29T08:48:18.894Z,63.90
2019-05-29T08:50:49.940Z,64.60
2019-05-29T08:53:20.782Z,63.90
2019-05-29T08:55:52.721Z,63.80
2019-05-29T08:58:23.592Z,65.00
2019-05-29T09:00:55.364Z,65.60
2019-05-29T09:03:26.467Z,66.00
2019-05-29T09:06:08.384Z,67.10
2019-05-29T09:08:29.581Z,66.00
2019-05-29T09:11:00.854Z,65.40
2019-05-29T09:13:31.783Z,67.70
2019-05-29T09:16:03.093Z,66.60
2019-05-29T09:18:33.769Z,67.30
2019-05-29T09:21:06.801Z,64.30
2019-05-29T09:23:37.560Z,64.20
2019-05-29T09:26:15.937Z,65.00
2019-05-29T09:28:40.623Z,66.90
2019-05-29T09:31:15.562Z,64.90
2019-05-29T09:33:46.821Z,63.30
2019-05-29T09:36:18.642Z,64.80
2019-05-29T09:38:50.161Z,63.40
2019-05-29T09:41:23.566Z,64.70
2019-05-29T09:43:59.545Z,64.20
2019-05-29T09:46:30.073Z,64.60
2019-05-29T09:49:03.209Z,65.60
2019-05-29T09:51:37.527Z,64.60
2019-05-29T09:54:11.808Z,62.60
2019-05-29T09:56:43.360Z,62.10
2019-05-29T09:59:14.186Z,63.50
2019-05-29T10:01:44.840Z,64.00
2019-05-29T10:04:15.629Z,63.20
2019-05-29T10:06:46.312Z,60.10
2019-05-29T10:09:17.158Z,63.50
2019-05-29T10:11:47.832Z,61.60
2019-05-29T10:14:18.882Z,61.50
2019-05-29T10:16:49.564Z,62.20
2019-05-29T10:19:20.415Z,62.00
2019-05-29T10:21:51.320Z,63.20
2019-05-29T10:24:22.277Z,62.90
2019-05-29T10:26:53.066Z,63.40
2019-05-29T10:29:24.060Z,62.30
2019-05-29T10:31:55.006Z,63.60
2019-05-29T10:34:25.301Z,63.60
2019-05-29T10:36:56.254Z,64.00
2019-05-29T10:39:27.269Z,63.80
2019-05-29T10:41:58.219Z,63.70
2019-05-29T10:44:28.983Z,64.00
2019-05-29T10:47:00.037Z,64.60
2019-05-29T10:49:30.765Z,64.30
2019-05-29T10:52:14.560Z,65.70
2019-05-29T10:54:39.093Z,67.00
2019-05-29T10:57:08.498Z,67.90
2019-05-29T10:59:39.311Z,68.90
2019-05-29T11:02:10.259Z,69.20
2019-05-29T11:04:40.935Z,69.90
2019-05-29T11:07:11.930Z,70.50
2019-05-29T11:09:44.904Z,71.10
2019-05-29T11:12:15.037Z,70.20
2019-05-29T11:14:46.492Z,70.20
2019-05-29T11:17:17.567Z,70.80
2019-05-29T11:19:49.213Z,71.60
2019-05-29T11:22:26.282Z,71.80
2019-05-29T11:24:52.500Z,70.60
2019-05-29T11:27:25.932Z,70.10
2019-05-29T11:29:56.960Z,69.90
2019-05-29T11:32:30.458Z,70.50
2019-05-29T11:35:02.229Z,70.50
2019-05-29T11:37:33.161Z,70.60
2019-05-29T11:40:03.925Z,70.90
2019-05-29T11:42:34.701Z,71.30
2019-05-29T11:45:06.778Z,70.40
2019-05-29T11:47:37.707Z,70.30
2019-05-29T11:50:19.117Z,71.50
2019-05-29T11:52:43.695Z,71.90
2019-05-29T11:55:14.637Z,72.10
2019-05-29T11:57:45.863Z,72.60
2019-05-29T12:00:20.415Z,71.50
2019-05-29T12:02:51.489Z,71.60
2019-05-29T12:05:22.634Z,72.30
2019-05-29T12:07:53.634Z,75.30
2019-05-29T12:10:25.144Z,78.80
2019-05-29T12:12:57.441Z,81.30
2019-05-29T12:15:28.442Z,82.50
2019-05-29T12:18:20.513Z,84.00
2019-05-29T12:20:31.290Z,84.50
2019-05-29T12:23:26.452Z,83.80
2019-05-29T12:25:35.643Z,84.60
2019-05-29T12:28:06.554Z,84.60
2019-05-29T12:30:37.402Z,84.20
2019-05-29T12:33:08.575Z,86.10
2019-05-29T12:35:39.368Z,87.30
2019-05-29T12:38:10.076Z,87.20
2019-05-29T12:40:40.887Z,87.30
2019-05-29T12:43:25.861Z,88.20
2019-05-29T12:45:44.004Z,89.30
2019-05-29T12:48:15.768Z,89.40
2019-05-29T12:50:46.860Z,89.80
2019-05-29T12:53:29.510Z,89.00
2019-05-29T12:55:50.019Z,89.10
2019-05-29T12:58:20.877Z,89.00
2019-05-29T13:00:51.734Z,88.50
2019-05-29T13:03:22.691Z,88.80
2019-05-29T13:05:54.160Z,89.30
2019-05-29T15:15:36.088Z,91.30
2019-05-29T15:18:07.064Z,91.10
2019-05-29T15:20:38.014Z,90.80
2019-05-29T15:23:09.249Z,90.40
2019-05-29T15:25:40.205Z,90.30
2019-05-29T15:28:13.627Z,90.40
2019-05-29T15:30:45.001Z,90.30
2019-05-29T15:33:16.914Z,90.90
2019-05-29T15:35:52.296Z,91.30
2019-05-29T15:38:24.613Z,91.40
2019-05-29T15:40:56.232Z,91.10
2019-05-29T15:43:27.011Z,91.10
2019-05-29T15:45:57.722Z,91.10
2019-05-29T15:48:28.448Z,91.70
2019-05-29T15:50:59.136Z,91.00
2019-05-29T15:53:30.209Z,91.20
2019-05-29T15:56:16.678Z,91.10
2019-05-29T15:58:33.129Z,90.80
2019-05-29T16:01:04.242Z,91.00
2019-05-29T16:03:35.241Z,91.30
2019-05-29T16:06:06.072Z,91.40
2019-05-29T16:08:37.495Z,91.50
2019-05-29T16:11:08.538Z,91.60
2019-05-29T16:13:39.602Z,91.40
2019-05-29T16:16:11.068Z,91.40
2019-05-29T16:18:41.989Z,91.50
2019-05-29T16:21:12.768Z,91.90
2019-05-29T16:23:43.634Z,92.00
2019-05-29T16:26:15.139Z,92.00
2019-05-29T16:28:45.863Z,92.10
2019-05-29T16:31:16.841Z,92.20
2019-05-29T16:33:47.716Z,92.30
2019-05-29T16:36:18.706Z,92.40
2019-05-29T16:38:49.559Z,92.40
2019-05-29T16:41:21.933Z,92.50
2019-05-29T16:43:53.222Z,92.10
2019-05-29T16:46:24.688Z,92.50
2019-05-29T16:48:55.604Z,92.50
2019-05-29T16:51:26.414Z,92.50
2019-05-29T16:53:57.342Z,93.00
2019-05-29T16:56:28.214Z,92.60
2019-05-29T16:58:59.016Z,92.70
2019-05-29T17:01:29.943Z,92.80
2019-05-29T17:04:00.908Z,92.80
2019-05-29T17:06:31.611Z,92.70
2019-05-29T17:09:02.369Z,92.60
2019-05-29T17:11:33.013Z,92.70
2019-05-29T17:14:03.793Z,92.20
2019-05-29T17:16:34.551Z,92.40
2019-05-29T17:19:05.435Z,92.40
2019-05-29T17:21:36.107Z,92.40
2019-05-29T17:24:07.115Z,92.50
2019-05-29T17:26:37.925Z,92.40
2019-05-29T17:29:08.584Z,92.60
2019-05-29T17:31:39.372Z,92.60
2019-05-29T17:34:10.041Z,92.70
2019-05-29T17:36:40.693Z,92.60
2019-05-29T17:39:11.417Z,92.90
2019-05-29T17:41:42.356Z,93.00
2019-05-29T17:44:15.332Z,92.60
2019-05-29T17:46:46.145Z,93.10
2019-05-29T17:49:17.729Z,92.90
2019-05-29T17:51:48.527Z,93.00
2019-05-29T17:54:19.762Z,93.00
2019-05-29T17:56:50.705Z,93.00
2019-05-29T17:59:22.144Z,93.00
2019-05-29T18:01:52.955Z,93.10
2019-05-29T18:04:24.850Z,93.10
2019-05-29T18:06:56.637Z,93.00
2019-05-29T18:09:29.289Z,93.10
2019-05-29T18:12:00.232Z,93.20
2019-05-29T18:14:31.067Z,93.30
2019-05-29T18:17:01.808Z,93.20
2019-05-29T18:19:32.550Z,93.30
2019-05-29T18:22:03.234Z,93.40
2019-05-29T18:24:34.135Z,93.50
2019-05-29T18:27:04.785Z,93.50
2019-05-29T18:29:35.432Z,93.60
2019-05-29T18:32:06.421Z,93.50
2019-05-29T18:34:37.101Z,93.50
2019-05-29T18:37:07.864Z,93.60
2019-05-29T18:39:38.679Z,94.00
2019-05-29T18:42:09.467Z,93.70
2019-05-29T18:44:40.094Z,93.80
2019-05-29T18:47:11.969Z,93.90
2019-05-29T18:49:42.881Z,93.90
2019-05-29T18:52:13.834Z,93.90
2019-05-29T18:54:44.970Z,93.90
2019-05-29T18:57:16.299Z,94.00
2019-05-29T18:59:47.280Z,93.90
2019-05-29T19:02:18.036Z,94.00
2019-05-29T19:04:48.921Z,94.00
2019-05-29T19:07:19.719Z,94.10
2019-05-29T19:09:50.415Z,94.00
2019-05-29T19:12:21.719Z,94.10
2019-05-29T19:14:52.577Z,94.10
2019-05-29T19:17:23.883Z,94.10
2019-05-29T19:19:54.875Z,94.20
2019-05-29T19:22:26.322Z,94.10
2019-05-29T19:24:57.254Z,94.20
2019-05-29T19:27:36.685Z,94.10
2019-05-29T19:30:00.163Z,94.20
2019-05-29T19:32:33.979Z,94.10
2019-05-29T19:35:05.504Z,94.20
2019-05-29T19:37:36.499Z,94.20
2019-05-29T19:40:09.026Z,94.20
2019-05-29T19:42:39.765Z,94.30
2019-05-29T19:45:11.152Z,94.10
2019-05-29T19:47:42.025Z,94.10
2019-05-29T19:50:13.682Z,94.30
2019-05-29T19:52:44.480Z,94.00
2019-05-29T19:55:15.475Z,94.20
2019-05-29T19:57:55.489Z,94.30
2019-05-29T20:00:18.457Z,94.00
2019-05-29T20:02:49.353Z,94.10
2019-05-29T20:05:20.112Z,94.20
2019-05-29T20:07:50.857Z,94.20
2019-05-29T20:10:21.765Z,94.40
2019-05-29T20:12:52.603Z,94.40
2019-05-29T20:15:23.470Z,94.20
2019-05-29T20:17:54.176Z,94.40
2019-05-29T20:20:24.848Z,94.50
2019-05-29T20:22:55.556Z,94.60
2019-05-29T20:25:26.350Z,94.70
2019-05-29T20:28:06.023Z,94.80
2019-05-29T20:30:30.221Z,94.80
2019-05-29T20:33:01.193Z,94.80
2019-05-29T20:35:32.768Z,94.90
2019-05-29T20:38:06.378Z,94.90
2019-05-29T20:40:35.732Z,94.90
2019-05-29T20:43:06.384Z,94.90
2019-05-29T20:45:37.663Z,94.90
2019-05-29T20:48:08.492Z,94.90
2019-05-29T20:50:39.274Z,95.00
2019-05-29T20:53:11.379Z,95.00
2019-05-29T20:55:42.704Z,95.00
2019-05-29T20:58:24.200Z,95.40
2019-05-29T21:00:45.795Z,95.10
2019-05-29T21:03:16.802Z,95.20
2019-05-29T21:05:47.696Z,95.20
2019-05-29T21:08:18.578Z,95.20
2019-05-29T21:10:49.371Z,95.30
2019-05-29T21:13:20.230Z,95.30
2019-05-29T21:15:50.914Z,95.40
2019-05-29T21:18:21.951Z,95.50
2019-05-29T21:20:52.735Z,95.40
2019-05-29T21:23:23.507Z,95.50
2019-05-29T21:25:58.118Z,95.50
2019-05-29T21:28:40.769Z,95.60
